createdAt,value
2023-11-11T00:00:10.945Z,2.53
2023-11-11T00:02:39.179Z,2.97
2023-11-11T00:05:08.658Z,2.90
2023-11-11T00:07:36.406Z,3.67
2023-11-11T00:10:04.348Z,2.93
2023-11-11T00:12:36.039Z,3.17
2023-11-11T00:15:04.282Z,2.87
2023-11-11T00:17:32.373Z,3.23
2023-11-11T00:20:00.779Z,4.07
2023-11-11T00:22:29.634Z,3.97
2023-11-11T00:24:57.978Z,3.00
2023-11-11T00:27:27.858Z,3.03
2023-11-11T00:29:57.345Z,3.73
2023-11-11T00:32:25.336Z,3.80
2023-11-11T00:34:54.721Z,4.20
2023-11-11T00:37:23.804Z,3.27
2023-11-11T00:39:51.577Z,3.60
2023-11-11T00:42:19.534Z,4.17
2023-11-11T00:44:47.126Z,3.33
2023-11-11T00:47:14.689Z,3.37
2023-11-11T00:49:42.465Z,3.47
2023-11-11T00:52:09.993Z,3.07
2023-11-11T00:54:40.501Z,3.23
2023-11-11T00:57:08.504Z,2.67
2023-11-11T00:59:36.057Z,3.30
2023-11-11T01:02:06.494Z,5.27
2023-11-11T01:04:34.623Z,3.83
2023-11-11T01:07:02.355Z,3.20
2023-11-11T01:09:29.987Z,3.37
2023-11-11T01:11:57.588Z,4.27
2023-11-11T01:14:25.225Z,4.87
2023-11-11T01:16:53.978Z,3.73
2023-11-11T01:19:21.720Z,5.23
2023-11-11T01:21:49.625Z,4.43
2023-11-11T01:24:17.289Z,4.00
2023-11-11T01:26:45.397Z,4.27
2023-11-11T01:29:13.046Z,4.13
2023-11-11T01:31:40.672Z,4.87
2023-11-11T01:34:08.353Z,4.37
2023-11-11T01:36:36.226Z,5.03
2023-11-11T01:39:03.987Z,5.13
2023-11-11T01:41:31.794Z,5.20
2023-11-11T01:43:59.278Z,6.47
2023-11-11T01:46:27.160Z,6.43
2023-11-11T01:48:54.802Z,6.17
2023-11-11T01:51:22.858Z,7.10
2023-11-11T01:53:50.890Z,6.20
2023-11-11T01:56:18.449Z,7.00
2023-11-11T01:58:45.853Z,6.60
2023-11-11T02:01:13.724Z,6.47
2023-11-11T02:03:41.385Z,7.07
2023-11-11T02:06:11.062Z,7.63
2023-11-11T02:08:38.953Z,7.13
2023-11-11T02:11:09.950Z,5.17
2023-11-11T02:13:38.622Z,3.90
2023-11-11T02:16:07.152Z,4.57
2023-11-11T02:18:34.996Z,4.03
2023-11-11T02:21:03.282Z,4.27
2023-11-11T02:23:37.638Z,3.80
2023-11-11T02:26:06.166Z,3.20
2023-11-11T02:28:33.733Z,2.10
2023-11-11T02:31:01.372Z,2.23
2023-11-11T02:33:29.157Z,3.00
2023-11-11T02:35:57.533Z,2.60
2023-11-11T02:38:24.972Z,2.20
2023-11-11T02:40:52.488Z,2.27
2023-11-11T02:43:20.120Z,2.13
2023-11-11T02:45:47.811Z,1.90
2023-11-11T02:48:15.391Z,1.90
2023-11-11T02:50:44.449Z,1.63
2023-11-11T02:53:12.207Z,1.80
2023-11-11T02:55:39.742Z,1.17
2023-11-11T02:58:07.730Z,1.30
2023-11-11T03:00:37.665Z,1.20
2023-11-11T03:03:05.964Z,1.27
2023-11-11T03:05:34.275Z,1.13
2023-11-11T03:08:01.843Z,1.77
2023-11-11T03:10:29.313Z,1.60
2023-11-11T03:12:57.268Z,0.90
2023-11-11T03:15:25.677Z,1.10
2023-11-11T03:17:53.218Z,1.10
2023-11-11T03:20:22.142Z,1.20
2023-11-11T03:22:49.629Z,1.03
2023-11-11T03:25:17.901Z,1.00
2023-11-11T03:27:45.629Z,1.00
2023-11-11T03:30:13.684Z,1.30
2023-11-11T03:32:41.443Z,1.20
2023-11-11T03:35:09.235Z,1.30
2023-11-11T03:37:36.803Z,1.60
2023-11-11T03:40:04.390Z,1.40
2023-11-11T03:42:31.835Z,1.80
2023-11-11T03:44:59.348Z,1.27
2023-11-11T03:47:26.760Z,1.40
2023-11-11T03:49:54.235Z,1.40
2023-11-11T03:52:21.766Z,1.53
2023-11-11T03:54:49.270Z,1.50
2023-11-11T03:57:17.252Z,0.90
2023-11-11T03:59:44.714Z,1.63
2023-11-11T04:02:13.085Z,1.57
2023-11-11T04:04:41.457Z,1.63
2023-11-11T04:07:10.954Z,1.40
2023-11-11T04:09:38.645Z,1.93
2023-11-11T04:12:06.788Z,2.10
2023-11-11T04:14:35.585Z,2.17
2023-11-11T04:17:03.161Z,3.03
2023-11-11T04:19:30.645Z,2.63
2023-11-11T04:21:58.230Z,2.57
2023-11-11T04:24:25.761Z,3.30
2023-11-11T04:26:53.473Z,3.33
2023-11-11T04:29:21.010Z,3.93
2023-11-11T04:31:48.973Z,3.67
2023-11-11T04:34:17.536Z,4.33
2023-11-11T04:36:45.163Z,5.27
2023-11-11T04:39:12.715Z,5.07
2023-11-11T04:41:41.311Z,6.00
2023-11-11T04:44:09.273Z,6.60
2023-11-11T04:46:38.095Z,6.30
2023-11-11T04:49:05.651Z,7.93
2023-11-11T04:51:33.594Z,8.23
2023-11-11T04:54:01.498Z,8.27
2023-11-11T04:56:29.053Z,9.27
2023-11-11T04:58:56.692Z,10.17
2023-11-11T05:01:24.538Z,10.03
2023-11-11T05:03:52.759Z,11.10
2023-11-11T05:06:20.377Z,11.83
2023-11-11T05:08:48.096Z,13.23
2023-11-11T05:11:15.620Z,12.50
2023-11-11T05:13:45.428Z,13.20
2023-11-11T05:16:28.257Z,15.10
2023-11-11T05:18:56.109Z,14.90
2023-11-11T05:21:23.699Z,15.63
2023-11-11T05:23:51.705Z,16.60
2023-11-11T05:26:19.180Z,17.60
2023-11-11T05:28:46.786Z,17.63
2023-11-11T05:31:14.408Z,17.80
2023-11-11T05:33:42.104Z,18.17
2023-11-11T05:36:15.079Z,17.90
2023-11-11T05:38:42.784Z,16.73
2023-11-11T05:41:10.388Z,18.20
2023-11-11T05:43:38.162Z,17.67
2023-11-11T05:46:06.411Z,19.77
2023-11-11T05:48:34.461Z,17.17
2023-11-11T05:51:02.069Z,18.07
2023-11-11T05:53:29.499Z,20.00
2023-11-11T05:55:56.947Z,16.93
2023-11-11T05:58:24.457Z,17.13
2023-11-11T06:00:52.148Z,15.73
2023-11-11T06:03:19.848Z,16.77
2023-11-11T06:05:47.700Z,17.60
2023-11-11T06:08:15.394Z,17.33
2023-11-11T06:10:43.014Z,16.97
2023-11-11T06:13:11.223Z,16.20
2023-11-11T06:15:40.004Z,16.10
2023-11-11T06:18:08.082Z,13.67
2023-11-11T06:20:37.246Z,14.70
2023-11-11T06:26:03.257Z,14.30
2023-11-11T06:28:30.906Z,13.03
2023-11-11T06:30:58.756Z,14.73
2023-11-11T06:33:26.570Z,13.13
2023-11-11T06:35:54.369Z,14.20
2023-11-11T06:38:22.937Z,12.57
2023-11-11T06:40:50.852Z,12.80
2023-11-11T06:43:18.375Z,14.40
2023-11-11T06:45:46.694Z,13.20
2023-11-11T06:48:16.941Z,14.50
2023-11-11T06:50:45.375Z,13.73
2023-11-11T06:53:13.356Z,13.53
2023-11-11T06:55:41.312Z,14.00
2023-11-11T06:58:08.960Z,14.93
2023-11-11T07:00:37.003Z,13.80
2023-11-11T07:03:05.040Z,11.73
2023-11-11T07:05:33.296Z,13.70
2023-11-11T07:08:00.979Z,13.40
2023-11-11T07:10:31.514Z,12.00
2023-11-11T07:12:59.251Z,12.77
2023-11-11T07:15:28.846Z,12.50
2023-11-11T07:17:57.620Z,14.10
2023-11-11T07:20:26.063Z,13.73
2023-11-11T07:22:55.757Z,14.23
2023-11-11T07:25:25.247Z,12.27
2023-11-11T07:27:52.684Z,12.87
2023-11-11T07:30:20.460Z,11.90
2023-11-11T07:32:57.226Z,12.23
2023-11-11T07:35:30.082Z,11.93
2023-11-11T07:37:58.601Z,11.17
2023-11-11T07:40:26.871Z,11.83
2023-11-11T07:42:56.811Z,10.80
2023-11-11T07:45:26.286Z,11.50
2023-11-11T07:47:54.254Z,9.70
2023-11-11T07:50:23.224Z,10.73
2023-11-11T07:52:51.344Z,9.90
2023-11-11T07:55:19.535Z,11.07
2023-11-11T08:00:20.144Z,10.07
2023-11-11T08:02:51.209Z,9.30
2023-11-11T08:05:21.617Z,10.10
2023-11-11T08:07:49.250Z,9.63
2023-11-11T08:10:17.143Z,8.87
2023-11-11T08:12:44.949Z,8.73
2023-11-11T08:15:12.588Z,9.77
2023-11-11T08:17:40.222Z,10.13
2023-11-11T08:20:12.717Z,9.90
2023-11-11T08:22:41.181Z,9.50
2023-11-11T08:25:09.011Z,8.83
2023-11-11T08:27:36.649Z,8.40
2023-11-11T08:30:04.627Z,8.53
2023-11-11T08:32:32.384Z,8.67
2023-11-11T08:35:00.972Z,7.37
2023-11-11T08:37:28.820Z,7.17
2023-11-11T08:39:56.943Z,7.37
2023-11-11T08:42:24.958Z,6.50
2023-11-11T08:44:53.031Z,7.23
2023-11-11T08:47:20.967Z,7.10
2023-11-11T08:49:48.708Z,7.87
2023-11-11T08:52:16.594Z,7.47
2023-11-11T08:54:46.749Z,7.93
2023-11-11T08:57:14.636Z,7.47
2023-11-11T08:59:42.318Z,7.77
2023-11-11T09:02:10.794Z,6.57
2023-11-11T09:04:38.571Z,6.07
2023-11-11T09:07:06.140Z,8.23
2023-11-11T09:09:33.611Z,7.77
2023-11-11T09:12:02.750Z,6.93
2023-11-11T09:14:34.561Z,6.27
2023-11-11T09:17:02.921Z,6.67
2023-11-11T09:19:32.398Z,6.70
2023-11-11T09:22:00.004Z,7.30
2023-11-11T09:24:27.996Z,6.53
2023-11-11T09:29:26.889Z,6.50
2023-11-11T09:31:54.593Z,6.87
2023-11-11T09:34:23.483Z,6.80
2023-11-11T09:36:51.704Z,9.83
2023-11-11T09:39:19.373Z,6.70
2023-11-11T09:41:47.049Z,6.43
2023-11-11T09:46:54.501Z,6.73
2023-11-11T09:49:22.797Z,6.07
2023-11-11T09:51:50.812Z,4.87
2023-11-11T09:54:18.629Z,4.80
2023-11-11T09:59:17.555Z,4.77
2023-11-11T10:01:49.895Z,3.90
2023-11-11T10:04:17.642Z,4.13
2023-11-11T10:06:45.469Z,5.73
2023-11-11T10:09:18.444Z,3.73
2023-11-11T10:11:46.996Z,3.87
2023-11-11T10:14:18.141Z,4.20
2023-11-11T10:16:45.906Z,3.43
2023-11-11T10:19:13.865Z,3.13
2023-11-11T10:21:41.777Z,3.23
2023-11-11T10:24:09.776Z,3.60
2023-11-11T10:26:38.892Z,3.10
2023-11-11T10:29:09.241Z,2.80
2023-11-11T10:31:38.062Z,3.37
2023-11-11T10:34:06.079Z,3.20
2023-11-11T10:36:42.006Z,2.93
2023-11-11T10:39:13.162Z,2.53
2023-11-11T10:41:41.129Z,2.97
2023-11-11T10:44:10.046Z,4.63
2023-11-11T10:46:38.337Z,4.47
2023-11-11T10:49:06.382Z,3.50
2023-11-11T10:51:35.550Z,3.47
2023-11-11T10:54:04.331Z,8.70
2023-11-11T10:56:36.057Z,5.17
2023-11-11T10:59:07.149Z,5.93
2023-11-11T11:01:36.948Z,2.53
2023-11-11T11:04:06.559Z,2.43
2023-11-11T11:06:38.215Z,2.13
2023-11-11T11:09:16.045Z,2.40
2023-11-11T11:11:49.579Z,1.67
2023-11-11T11:14:20.869Z,1.60
2023-11-11T11:16:49.603Z,2.10
2023-11-11T11:19:17.468Z,1.77
2023-11-11T11:21:45.410Z,2.13
2023-11-11T11:24:16.641Z,2.17
2023-11-11T11:26:44.667Z,2.23
2023-11-11T11:29:16.386Z,6.33
2023-11-11T11:32:03.076Z,4.70
2023-11-11T11:34:30.753Z,3.20
2023-11-11T11:36:58.527Z,2.27
2023-11-11T11:39:45.556Z,2.50
2023-11-11T11:42:35.299Z,3.17
2023-11-11T11:45:15.932Z,3.23
2023-11-11T11:47:43.793Z,2.70
2023-11-11T11:50:11.740Z,3.73
2023-11-11T11:52:39.678Z,2.83
2023-11-11T11:55:07.337Z,4.23
2023-11-11T11:57:34.930Z,4.27
2023-11-11T12:00:15.267Z,5.40
2023-11-11T12:02:43.784Z,6.70
2023-11-11T12:05:13.689Z,4.53
2023-11-11T12:07:41.560Z,4.97
2023-11-11T12:10:12.465Z,3.47
2023-11-11T12:12:42.268Z,3.57
2023-11-11T12:15:17.192Z,3.00
2023-11-11T12:17:46.420Z,3.83
2023-11-11T12:20:19.031Z,3.27
2023-11-11T12:22:48.260Z,2.70
2023-11-11T12:25:17.193Z,3.17
2023-11-11T12:27:44.719Z,3.20
2023-11-11T12:30:20.228Z,3.17
2023-11-11T12:33:07.558Z,3.60
2023-11-11T12:35:35.806Z,5.50
2023-11-11T12:38:23.032Z,3.33
2023-11-11T12:40:51.221Z,4.88
2023-11-11T12:43:19.272Z,4.32
2023-11-11T12:45:47.915Z,3.63
2023-11-11T12:48:17.644Z,3.47
2023-11-11T12:50:45.737Z,3.37
2023-11-11T12:53:15.074Z,3.67
2023-11-11T12:55:47.528Z,3.03
2023-11-11T12:58:24.177Z,4.13
2023-11-11T13:00:56.439Z,3.80
2023-11-11T13:03:28.189Z,3.80
2023-11-11T13:05:56.409Z,4.37
2023-11-11T13:08:24.795Z,3.87
2023-11-11T13:10:53.754Z,4.20
2023-11-11T13:13:25.166Z,4.77
2023-11-11T13:15:53.367Z,5.10
2023-11-11T13:18:21.368Z,4.43
2023-11-11T13:20:49.091Z,5.50
2023-11-11T13:23:20.732Z,5.13
2023-11-11T13:25:51.925Z,5.83
2023-11-11T13:28:19.933Z,5.23
2023-11-11T13:30:50.575Z,6.93
2023-11-11T13:33:18.163Z,6.70
2023-11-11T13:35:56.717Z,5.70
2023-11-11T13:38:24.387Z,6.00
2023-11-11T13:40:53.345Z,6.53
2023-11-11T13:43:23.741Z,6.77
2023-11-11T13:45:51.664Z,9.37
2023-11-11T13:48:19.183Z,7.80
2023-11-11T13:50:46.795Z,6.87
2023-11-11T13:53:14.247Z,8.03
2023-11-11T13:55:44.734Z,7.37
2023-11-11T13:58:12.194Z,8.60
2023-11-11T14:00:39.837Z,7.50
2023-11-11T14:03:08.985Z,8.03
2023-11-11T14:05:43.384Z,7.03
2023-11-11T14:08:11.088Z,8.53
2023-11-11T14:10:39.006Z,8.23
2023-11-11T14:13:06.544Z,7.47
2023-11-11T14:15:40.021Z,10.13
2023-11-11T14:18:15.604Z,9.00
2023-11-11T14:20:48.396Z,8.43
2023-11-11T14:23:19.981Z,8.87
2023-11-11T14:25:47.883Z,9.10
2023-11-11T14:28:15.393Z,10.70
2023-11-11T14:30:42.951Z,11.33
2023-11-11T14:33:11.630Z,12.40
2023-11-11T14:35:39.227Z,12.70
2023-11-11T14:38:06.880Z,13.93
2023-11-11T14:40:36.188Z,13.60
2023-11-11T14:43:05.190Z,14.63
2023-11-11T14:45:33.966Z,15.50
2023-11-11T14:48:01.476Z,13.90
2023-11-11T14:50:37.517Z,14.93
2023-11-11T14:53:10.723Z,17.00
2023-11-11T14:55:38.376Z,14.80
2023-11-11T14:58:05.911Z,15.83
2023-11-11T15:00:42.346Z,16.30
2023-11-11T15:03:20.088Z,16.53
2023-11-11T15:05:50.254Z,13.47
2023-11-11T15:08:17.849Z,13.70
2023-11-11T15:10:45.474Z,15.70
2023-11-11T15:13:19.178Z,17.03
2023-11-11T15:15:49.999Z,16.27
2023-11-11T15:18:17.976Z,17.03
2023-11-11T15:20:45.566Z,16.80
2023-11-11T15:23:15.098Z,14.80
2023-11-11T15:25:42.703Z,16.20
2023-11-11T15:28:10.224Z,16.60
2023-11-11T15:30:37.695Z,14.13
2023-11-11T15:33:05.466Z,15.10
2023-11-11T15:35:33.482Z,15.63
2023-11-11T15:38:02.409Z,16.07
2023-11-11T15:40:30.247Z,14.47
2023-11-11T15:42:58.440Z,16.87
2023-11-11T15:45:26.773Z,15.87
2023-11-11T15:47:55.820Z,16.63
2023-11-11T15:50:24.404Z,15.00
2023-11-11T15:52:51.883Z,15.57
2023-11-11T15:55:21.714Z,15.90
2023-11-11T15:57:49.137Z,16.10
2023-11-11T16:00:18.109Z,16.93
2023-11-11T16:02:45.567Z,16.90
2023-11-11T16:05:13.144Z,16.80
2023-11-11T16:07:41.154Z,17.80
2023-11-11T16:10:09.071Z,16.77
2023-11-11T16:12:36.500Z,18.10
2023-11-11T16:15:04.350Z,16.73
2023-11-11T16:17:32.599Z,18.33
2023-11-11T16:20:00.477Z,18.47
2023-11-11T16:22:28.522Z,18.03
2023-11-11T16:24:56.348Z,17.10
2023-11-11T16:27:24.898Z,16.93
2023-11-11T16:29:55.452Z,17.10
2023-11-11T16:32:24.618Z,16.53
2023-11-11T16:34:52.389Z,17.67
2023-11-11T16:37:20.066Z,25.52
2023-11-11T16:39:49.429Z,17.53
2023-11-11T16:42:18.227Z,17.67
2023-11-11T16:44:48.196Z,20.20
2023-11-11T16:47:17.595Z,17.93
2023-11-11T16:49:46.189Z,18.90
2023-11-11T16:52:14.167Z,16.30
2023-11-11T16:54:43.149Z,18.03
2023-11-11T16:57:11.871Z,15.47
2023-11-11T16:59:39.322Z,15.27
2023-11-11T17:02:07.296Z,13.73
2023-11-11T17:04:35.007Z,13.40
2023-11-11T17:07:07.289Z,12.33
2023-11-11T17:09:39.452Z,12.00
2023-11-11T17:12:07.103Z,11.97
2023-11-11T17:14:35.036Z,9.33
2023-11-11T17:17:06.106Z,9.77
2023-11-11T17:19:34.089Z,8.77
2023-11-11T17:22:01.764Z,7.40
2023-11-11T17:24:29.240Z,5.60
2023-11-11T17:26:56.631Z,6.67
2023-11-11T17:29:24.035Z,6.77
2023-11-11T17:31:51.526Z,6.33
2023-11-11T17:34:19.022Z,6.80
2023-11-11T17:36:46.542Z,6.67
2023-11-11T17:39:14.106Z,6.77
2023-11-11T17:41:41.748Z,6.13
2023-11-11T17:44:09.863Z,5.93
2023-11-11T17:46:37.505Z,5.73
2023-11-11T17:49:09.378Z,5.47
2023-11-11T17:51:36.927Z,6.13
2023-11-11T17:54:04.460Z,6.33
2023-11-11T17:56:32.407Z,6.33
2023-11-11T17:58:59.959Z,6.60
2023-11-11T18:01:35.770Z,6.23
2023-11-11T18:04:03.837Z,5.93
2023-11-11T18:06:31.283Z,5.67
2023-11-11T18:08:58.719Z,6.20
2023-11-11T18:11:26.759Z,6.00
2023-11-11T18:13:54.210Z,6.20
2023-11-11T18:16:21.840Z,6.33
2023-11-11T18:18:49.365Z,5.93
2023-11-11T18:21:17.032Z,5.93
2023-11-11T18:23:47.841Z,5.97
2023-11-11T18:26:15.437Z,5.90
2023-11-11T18:28:43.047Z,5.77
2023-11-11T18:31:10.556Z,6.10
2023-11-11T18:33:38.336Z,6.93
2023-11-11T18:36:06.031Z,6.67
2023-11-11T18:38:36.550Z,7.03
2023-11-11T18:41:05.058Z,7.43
2023-11-11T18:43:33.045Z,7.63
2023-11-11T18:46:00.651Z,8.50
2023-11-11T18:48:28.820Z,8.67
2023-11-11T18:50:56.606Z,8.40
2023-11-11T18:53:24.153Z,8.63
2023-11-11T18:55:51.725Z,7.40
2023-11-11T18:58:21.732Z,9.17
2023-11-11T19:00:49.324Z,10.40
2023-11-11T19:03:16.896Z,9.50
2023-11-11T19:05:44.410Z,10.00
2023-11-11T19:08:12.072Z,11.03
2023-11-11T19:10:39.869Z,11.57
2023-11-11T19:13:08.418Z,11.47
2023-11-11T19:15:36.226Z,11.33
2023-11-11T19:18:04.324Z,10.10
2023-11-11T19:20:31.857Z,12.30
2023-11-11T19:22:59.499Z,11.53
2023-11-11T19:25:27.024Z,11.43
2023-11-11T19:27:58.737Z,11.53
2023-11-11T19:30:26.871Z,11.60
2023-11-11T19:32:55.563Z,10.63
2023-11-11T19:35:23.992Z,10.93
2023-11-11T19:37:52.446Z,16.70
2023-11-11T19:40:20.957Z,11.50
2023-11-11T19:42:48.699Z,11.83
2023-11-11T19:45:17.504Z,11.97
2023-11-11T19:47:45.090Z,13.03
2023-11-11T19:50:13.577Z,12.50
2023-11-11T19:52:41.410Z,12.00
2023-11-11T19:55:09.527Z,11.33
2023-11-11T19:57:38.889Z,12.30
2023-11-11T20:00:07.263Z,10.03
2023-11-11T20:02:37.742Z,12.97
2023-11-11T20:05:05.585Z,14.00
2023-11-11T20:10:05.540Z,11.10
2023-11-11T20:12:33.329Z,11.20
2023-11-11T20:15:10.065Z,10.80
2023-11-11T20:17:37.973Z,11.60
2023-11-11T20:20:06.607Z,11.47
2023-11-11T20:22:37.832Z,11.33
2023-11-11T20:25:05.465Z,11.83
2023-11-11T20:27:44.678Z,11.00
2023-11-11T20:30:17.974Z,12.47
2023-11-11T20:32:45.430Z,11.03
2023-11-11T20:35:15.510Z,13.30
2023-11-11T20:37:43.287Z,12.27
2023-11-11T20:40:17.016Z,13.27
2023-11-11T20:42:45.131Z,12.77
2023-11-11T20:45:13.592Z,13.48
2023-11-11T20:47:41.096Z,13.50
2023-11-11T20:50:14.761Z,11.77
2023-11-11T20:52:46.118Z,11.23
2023-11-11T20:55:15.332Z,13.63
2023-11-11T20:57:43.179Z,12.83
2023-11-11T21:00:11.215Z,11.87
2023-11-11T21:02:39.193Z,13.57
2023-11-11T21:05:06.782Z,14.10
2023-11-11T21:07:35.228Z,11.70
2023-11-11T21:10:02.723Z,13.47
2023-11-11T21:12:30.359Z,13.33
2023-11-11T21:14:57.984Z,16.53
2023-11-11T21:17:30.650Z,12.90
2023-11-11T21:19:58.575Z,12.63
2023-11-11T21:22:26.685Z,12.37
2023-11-11T21:24:54.381Z,13.70
2023-11-11T21:27:21.827Z,12.80
2023-11-11T21:29:49.919Z,16.10
2023-11-11T21:32:17.752Z,14.10
2023-11-11T21:34:45.590Z,14.50
2023-11-11T21:37:13.106Z,17.53
2023-11-11T21:39:43.530Z,17.47
2023-11-11T21:42:12.589Z,15.40
2023-11-11T21:44:40.324Z,17.73
2023-11-11T21:47:07.889Z,17.47
2023-11-11T21:49:35.529Z,18.30
2023-11-11T21:52:05.308Z,17.90
2023-11-11T21:54:33.170Z,15.93
2023-11-11T21:57:01.130Z,18.23
2023-11-11T21:59:28.858Z,19.30
2023-11-11T22:01:56.440Z,22.47
2023-11-11T22:04:24.877Z,21.07
2023-11-11T22:06:52.317Z,19.10
2023-11-11T22:09:20.423Z,22.23
2023-11-11T22:11:48.024Z,21.47
2023-11-11T22:14:15.561Z,20.37
2023-11-11T22:16:43.502Z,22.27
2023-11-11T22:19:11.046Z,21.07
2023-11-11T22:21:38.510Z,21.40
2023-11-11T22:24:06.481Z,20.80
2023-11-11T22:26:34.163Z,20.40
2023-11-11T22:29:02.345Z,20.90
2023-11-11T22:31:29.928Z,20.97
2023-11-11T22:33:57.386Z,21.57
2023-11-11T22:36:25.344Z,22.30
2023-11-11T22:38:52.820Z,22.13
2023-11-11T22:41:20.429Z,22.00
2023-11-11T22:43:50.622Z,21.83
2023-11-11T22:46:20.379Z,21.30
2023-11-11T22:48:47.814Z,21.23
2023-11-11T22:51:15.255Z,20.83
2023-11-11T22:53:42.683Z,21.33
2023-11-11T22:56:10.567Z,22.30
2023-11-11T22:58:38.116Z,21.80
2023-11-11T23:01:05.672Z,22.40
2023-11-11T23:03:33.403Z,21.90
2023-11-11T23:06:01.059Z,22.70
2023-11-11T23:08:28.501Z,22.50
2023-11-11T23:10:56.036Z,21.97
2023-11-11T23:13:23.713Z,22.33
2023-11-11T23:15:51.177Z,23.57
2023-11-11T23:18:18.927Z,23.30
2023-11-11T23:20:46.512Z,20.93
2023-11-11T23:23:14.827Z,21.40
2023-11-11T23:25:42.732Z,23.03
2023-11-11T23:28:11.349Z,23.07
2023-11-11T23:30:39.360Z,22.27
2023-11-11T23:33:07.604Z,24.00
2023-11-11T23:35:35.369Z,23.83
2023-11-11T23:38:03.856Z,24.80
2023-11-11T23:40:31.435Z,23.87
2023-11-11T23:42:59.223Z,25.53
2023-11-11T23:45:27.352Z,27.10
2023-11-11T23:47:54.843Z,28.50
2023-11-11T23:50:22.407Z,29.17
2023-11-11T23:52:49.975Z,28.97
2023-11-11T23:55:17.446Z,29.80
2023-11-11T23:57:44.992Z,31.47
